Time;durP1;ratioP1;P1;durP2;ratioP2;P2;SDS_P1;SDS_P2;PMS_P1;PMS_P2;Temp;Humidity;BMP_temperature;BMP_pressure;BME280_temperature;BME280_humidity;BME280_pressure;Samples;Min_cycle;Max_cycle;Signal;HPM_P1;HPM_P2
2023/10/20 00:00:18;;;;;;;0.68;0.68;;;1.60;99.90;;;;;;5109323;28;20631;-72
2023/10/20 00:02:44;;;;;;;0.70;0.70;;;1.50;99.90;;;;;;5109408;28;20191;-72
2023/10/20 00:05:10;;;;;;;0.70;0.70;;;1.60;99.90;;;;;;5109324;28;20241;-72
2023/10/20 00:07:36;;;;;;;0.60;0.60;;;1.60;99.90;;;;;;5109112;28;20187;-72
2023/10/20 00:10:03;;;;;;;0.52;0.52;;;1.60;99.90;;;;;;5090894;28;20237;-72
2023/10/20 00:12:30;;;;;;;0.60;0.60;;;1.70;99.90;;;;;;5109000;28;20275;-72
2023/10/20 00:14:56;;;;;;;0.60;0.60;;;1.70;99.90;;;;;;5108969;28;20232;-72
2023/10/20 00:17:22;;;;;;;0.73;0.73;;;1.70;99.90;;;;;;5108986;28;20195;-72
2023/10/20 00:19:47;;;;;;;0.68;0.68;;;1.70;99.90;;;;;;5108759;28;20195;-73
2023/10/20 00:22:14;;;;;;;0.60;0.60;;;1.70;99.90;;;;;;5108177;28;20612;-72
2023/10/20 00:24:40;;;;;;;0.70;0.70;;;1.70;99.90;;;;;;5109124;28;20287;-71
2023/10/20 00:27:05;;;;;;;0.60;0.60;;;1.80;99.90;;;;;;5108950;28;20729;-72
2023/10/20 00:29:31;;;;;;;0.68;0.68;;;1.70;99.90;;;;;;5108834;28;20276;-72
2023/10/20 00:31:56;;;;;;;0.63;0.63;;;1.80;99.90;;;;;;5090761;28;20211;-72
2023/10/20 00:34:22;;;;;;;0.57;0.57;;;1.80;99.90;;;;;;5108968;28;20199;-71
2023/10/20 00:36:48;;;;;;;0.60;0.60;;;1.80;99.90;;;;;;5109122;28;20187;-72
2023/10/20 00:39:13;;;;;;;0.60;0.60;;;1.80;99.90;;;;;;5109046;28;20203;-72
2023/10/20 00:41:39;;;;;;;0.68;0.68;;;1.80;99.90;;;;;;5108903;28;20191;-72
2023/10/20 00:44:05;;;;;;;0.52;0.52;;;1.80;99.90;;;;;;5108887;28;20325;-73
2023/10/20 00:46:31;;;;;;;0.50;0.50;;;1.90;99.90;;;;;;5090370;28;20203;-72
2023/10/20 00:48:57;;;;;;;0.60;0.60;;;1.90;99.90;;;;;;5108769;28;20263;-72
2023/10/20 00:51:24;;;;;;;0.60;0.60;;;1.90;99.90;;;;;;5098482;28;20228;-72
2023/10/20 00:53:50;;;;;;;0.60;0.60;;;1.90;99.90;;;;;;5095548;28;20188;-72
2023/10/20 00:56:17;;;;;;;0.65;0.65;;;2.00;99.90;;;;;;5111576;28;20253;-72
2023/10/20 00:58:43;;;;;;;0.70;0.70;;;2.00;99.90;;;;;;5112937;28;20192;-72
2023/10/20 01:01:09;;;;;;;0.60;0.60;;;2.00;99.90;;;;;;5112886;28;20685;-73
2023/10/20 01:03:35;;;;;;;0.60;0.60;;;2.00;99.90;;;;;;5112838;28;20199;-72
2023/10/20 01:06:03;;;;;;;0.50;0.50;;;2.10;99.90;;;;;;5094168;28;20335;-72
2023/10/20 01:08:30;;;;;;;0.55;0.55;;;2.10;99.90;;;;;;5094199;28;20290;-72
2023/10/20 01:10:56;;;;;;;0.70;0.70;;;2.10;99.90;;;;;;5112617;28;20609;-72
2023/10/20 01:13:22;;;;;;;0.60;0.60;;;2.10;99.90;;;;;;5093885;28;20261;-73
2023/10/20 01:15:49;;;;;;;0.60;0.60;;;2.20;99.90;;;;;;5112241;28;20675;-72
2023/10/20 01:18:15;;;;;;;0.60;0.60;;;2.20;99.90;;;;;;5112650;28;20206;-72
2023/10/20 01:20:41;;;;;;;0.50;0.50;;;2.20;99.90;;;;;;5112155;28;20274;-72
2023/10/20 01:23:07;;;;;;;0.70;0.70;;;2.20;99.90;;;;;;5112502;28;20639;-72
2023/10/20 01:25:33;;;;;;;0.60;0.60;;;2.20;99.90;;;;;;5111787;28;20241;-72
2023/10/20 01:27:58;;;;;;;0.70;0.70;;;2.20;99.90;;;;;;5112357;28;20196;-72
2023/10/20 01:30:25;;;;;;;0.60;0.60;;;2.20;99.90;;;;;;5111165;28;20226;-72
2023/10/20 01:32:51;;;;;;;0.52;0.52;;;2.20;99.90;;;;;;5112092;28;20222;-72
2023/10/20 01:35:17;;;;;;;0.70;0.70;;;2.20;99.90;;;;;;5112079;28;20191;-72
2023/10/20 01:37:42;;;;;;;0.60;0.60;;;2.10;99.90;;;;;;5112061;28;20213;-72
2023/10/20 01:40:09;;;;;;;0.70;0.70;;;2.10;99.90;;;;;;5093524;28;20195;-73
2023/10/20 01:42:35;;;;;;;0.50;0.50;;;2.20;99.90;;;;;;5112026;28;20241;-72
2023/10/20 01:45:01;;;;;;;0.70;0.70;;;2.20;99.90;;;;;;5093420;28;20662;-72
2023/10/20 01:47:27;;;;;;;0.60;0.60;;;2.20;99.90;;;;;;5111532;28;20707;-72
2023/10/20 01:49:53;;;;;;;0.60;0.60;;;2.20;99.90;;;;;;5111827;28;20191;-72
2023/10/20 01:52:18;;;;;;;0.60;0.60;;;2.20;99.90;;;;;;5093273;28;20219;-72
2023/10/20 01:54:45;;;;;;;0.70;0.70;;;2.20;99.90;;;;;;5111638;28;20200;-72
2023/10/20 01:57:11;;;;;;;0.73;0.73;;;2.20;99.90;;;;;;5111897;28;20218;-72
2023/10/20 01:59:36;;;;;;;0.70;0.70;;;2.10;99.90;;;;;;5111579;28;20627;-72
2023/10/20 02:02:03;;;;;;;0.60;0.60;;;2.20;99.90;;;;;;5111647;28;20264;-72
2023/10/20 02:04:30;;;;;;;0.60;0.60;;;2.10;99.90;;;;;;5093615;28;20265;-72
2023/10/20 02:06:56;;;;;;;0.65;0.65;;;2.10;99.90;;;;;;5092307;28;20282;-72
2023/10/20 02:09:25;;;;;;;0.60;0.60;;;2.10;99.90;;;;;;5111595;28;20282;-71
2023/10/20 02:11:51;;;;;;;0.60;0.60;;;2.10;99.90;;;;;;5111318;28;20207;-72
2023/10/20 02:14:17;;;;;;;2.08;1.65;;;2.10;99.90;;;;;;5111419;28;20187;-72
2023/10/20 02:16:43;;;;;;;0.60;0.60;;;2.10;99.90;;;;;;5111450;28;20218;-72
2023/10/20 02:19:10;;;;;;;0.70;0.70;;;2.10;99.90;;;;;;5111350;28;20644;-72
2023/10/20 02:21:37;;;;;;;0.60;0.60;;;2.00;99.90;;;;;;5110906;28;20670;-72
2023/10/20 02:24:03;;;;;;;0.90;0.90;;;2.10;99.90;;;;;;5111434;28;20244;-70
2023/10/20 02:26:29;;;;;;;0.60;0.60;;;2.10;99.90;;;;;;5111296;28;20785;-68
2023/10/20 02:28:55;;;;;;;0.57;0.57;;;2.10;99.90;;;;;;5093095;28;20223;-70
2023/10/20 02:31:21;;;;;;;0.60;0.60;;;2.10;99.90;;;;;;5110564;28;20219;-69
2023/10/20 02:33:47;;;;;;;0.55;0.55;;;2.10;99.90;;;;;;5110896;28;20191;-69
2023/10/20 02:36:20;;;;;;;0.70;0.70;;;2.10;99.90;;;;;;5110812;28;20191;-70
2023/10/20 02:38:47;;;;;;;0.57;0.57;;;2.20;99.90;;;;;;5110900;28;20195;-70
2023/10/20 02:41:14;;;;;;;0.60;0.60;;;2.20;99.90;;;;;;5110768;28;20200;-70
2023/10/20 02:43:40;;;;;;;0.70;0.70;;;2.20;99.90;;;;;;5091925;28;20662;-70
2023/10/20 02:46:07;;;;;;;0.60;0.60;;;2.20;99.90;;;;;;5092172;28;20279;-70
2023/10/20 02:48:33;;;;;;;4.78;2.80;;;2.20;99.90;;;;;;5110424;28;20368;-70
2023/10/20 02:51:11;;;;;;;0.90;0.90;;;2.10;99.90;;;;;;5092123;28;20215;-70
2023/10/20 02:53:39;;;;;;;1.63;1.52;;;2.10;99.90;;;;;;5110107;28;20195;-69
2023/10/20 02:56:12;;;;;;;2.13;2.00;;;2.10;99.90;;;;;;5110501;28;20215;-69
2023/10/20 02:58:38;;;;;;;0.80;0.80;;;2.10;99.90;;;;;;5110350;28;20196;-69
2023/10/20 03:01:09;;;;;;;0.93;0.93;;;2.10;99.90;;;;;;5101546;28;20208;-69
2023/10/20 03:03:35;;;;;;;0.90;0.90;;;2.10;99.90;;;;;;5099966;28;20206;-69
2023/10/20 03:06:02;;;;;;;0.70;0.70;;;2.00;99.90;;;;;;5110296;28;20286;-71
2023/10/20 03:08:31;;;;;;;0.60;0.60;;;2.00;99.90;;;;;;5106687;28;20195;-70
2023/10/20 03:10:57;;;;;;;0.63;0.63;;;2.00;99.90;;;;;;5089983;28;20332;-68
2023/10/20 03:13:24;;;;;;;0.70;0.70;;;2.00;99.90;;;;;;5089756;28;20342;-68
2023/10/20 03:15:50;;;;;;;0.90;0.90;;;2.10;99.90;;;;;;5074261;28;20587;-71
2023/10/20 03:18:16;;;;;;;0.60;0.60;;;2.10;99.90;;;;;;5109971;28;20233;-73
2023/10/20 03:20:43;;;;;;;0.50;0.50;;;2.10;99.90;;;;;;5091430;28;20682;-72
2023/10/20 03:23:16;;;;;;;0.60;0.60;;;2.10;99.90;;;;;;5110058;28;20200;-72
2023/10/20 03:25:42;;;;;;;0.60;0.60;;;2.10;99.90;;;;;;5109800;28;20744;-72
2023/10/20 03:28:08;;;;;;;0.65;0.65;;;2.00;99.90;;;;;;5109925;28;20256;-72
2023/10/20 03:30:41;;;;;;;0.60;0.60;;;2.00;99.90;;;;;;5091102;28;20546;-72
2023/10/20 03:33:08;;;;;;;0.63;0.63;;;2.00;99.90;;;;;;5109860;28;20723;-72
2023/10/20 03:35:36;;;;;;;0.80;0.80;;;1.90;99.90;;;;;;5109489;28;20237;-71
2023/10/20 03:38:04;;;;;;;0.70;0.70;;;1.90;99.90;;;;;;5091407;28;20191;-71
2023/10/20 03:40:32;;;;;;;0.60;0.60;;;1.90;99.90;;;;;;5078072;28;20261;-71
2023/10/20 03:42:59;;;;;;;0.68;0.68;;;1.90;99.90;;;;;;5078906;28;20218;-71
2023/10/20 03:45:25;;;;;;;0.75;0.75;;;1.90;99.90;;;;;;5091084;28;20206;-71
2023/10/20 03:47:51;;;;;;;0.90;0.90;;;1.90;99.90;;;;;;5084428;28;20224;-71
2023/10/20 03:50:18;;;;;;;0.60;0.60;;;1.80;99.90;;;;;;5089598;28;20200;-71
2023/10/20 03:52:46;;;;;;;0.60;0.60;;;1.80;99.90;;;;;;5089190;28;20188;-71
2023/10/20 03:55:16;;;;;;;0.50;0.50;;;1.80;99.90;;;;;;5070739;28;20196;-71
2023/10/20 03:57:42;;;;;;;0.57;0.57;;;1.70;99.90;;;;;;5089026;28;20203;-71
2023/10/20 04:00:17;;;;;;;0.60;0.60;;;1.70;99.90;;;;;;5089000;28;20226;-70
2023/10/20 04:02:44;;;;;;;0.80;0.80;;;1.70;99.90;;;;;;5088912;28;20187;-71
2023/10/20 04:05:10;;;;;;;0.80;0.80;;;1.70;99.90;;;;;;5070533;28;20529;-71
2023/10/20 04:07:35;;;;;;;0.90;0.90;;;1.70;99.90;;;;;;5088883;28;20199;-71
2023/10/20 04:10:01;;;;;;;0.63;0.63;;;1.70;99.90;;;;;;5089144;28;20610;-70
2023/10/20 04:12:27;;;;;;;0.60;0.60;;;1.70;99.90;;;;;;5088548;28;20627;-71
2023/10/20 04:14:55;;;;;;;0.70;0.70;;;1.70;99.90;;;;;;5089191;28;20587;-70
2023/10/20 04:17:21;;;;;;;0.75;0.75;;;1.70;99.90;;;;;;5088810;28;20638;-70
2023/10/20 04:19:47;;;;;;;3.42;1.45;;;1.60;99.90;;;;;;5088926;28;20188;-71
2023/10/20 04:22:13;;;;;;;0.60;0.60;;;1.50;99.90;;;;;;5070655;28;20690;-70
2023/10/20 04:24:41;;;;;;;0.50;0.50;;;1.50;99.90;;;;;;5088926;28;20671;-72
2023/10/20 04:27:20;;;;;;;0.55;0.55;;;1.50;99.90;;;;;;5070493;28;20204;-73
2023/10/20 04:44:50;;;;;;;0.70;0.70;;;1.50;99.90;;;;;;5072589;28;20313;-71
2023/10/20 04:54:19;;;;;;;1.20;1.10;;;1.60;99.90;;;;;;5102722;28;20192;-72
2023/10/20 04:57:20;;;;;;;0.70;0.70;;;1.60;99.90;;;;;;5092616;28;20191;-72
2023/10/20 04:59:31;;;;;;;1.98;1.40;;;1.60;99.90;;;;;;5092307;28;20209;-73
2023/10/20 05:02:10;;;;;;;0.60;0.60;;;1.70;99.90;;;;;;5103990;28;20203;-72
2023/10/20 05:04:40;;;;;;;0.60;0.60;;;1.60;99.90;;;;;;5094303;28;20213;-72
2023/10/20 05:07:08;;;;;;;0.50;0.50;;;1.70;99.90;;;;;;5112522;28;20627;-72
2023/10/20 05:09:40;;;;;;;0.55;0.55;;;1.60;99.90;;;;;;5112577;28;20211;-72
2023/10/20 05:12:07;;;;;;;0.60;0.60;;;1.60;99.90;;;;;;5112737;28;20211;-72
2023/10/20 05:14:32;;;;;;;0.55;0.55;;;1.50;99.90;;;;;;5112615;28;20654;-72
2023/10/20 05:16:58;;;;;;;0.60;0.60;;;1.50;99.90;;;;;;5112474;28;20198;-72
2023/10/20 05:19:25;;;;;;;0.60;0.60;;;1.50;99.90;;;;;;5113020;28;20192;-72
2023/10/20 05:21:51;;;;;;;0.82;0.82;;;1.50;99.90;;;;;;5112434;28;20555;-72
2023/10/20 05:24:17;;;;;;;0.63;0.63;;;1.50;99.90;;;;;;5112814;28;20195;-72
2023/10/20 05:26:46;;;;;;;0.68;0.68;;;1.50;99.90;;;;;;5112326;28;20192;-72
2023/10/20 05:29:11;;;;;;;0.93;0.93;;;1.40;99.90;;;;;;5094307;28;20191;-72
2023/10/20 05:31:38;;;;;;;0.60;0.60;;;1.40;99.90;;;;;;5110677;28;20218;-72
2023/10/20 05:34:07;;;;;;;0.63;0.63;;;1.40;99.90;;;;;;5091938;28;20565;-71
2023/10/20 05:36:32;;;;;;;0.65;0.65;;;1.40;99.90;;;;;;5108810;28;20278;-71
2023/10/20 05:38:58;;;;;;;3.30;1.48;;;1.40;99.90;;;;;;5112305;28;20279;-71
2023/10/20 05:41:24;;;;;;;0.70;0.70;;;1.30;99.90;;;;;;5111923;28;20631;-71
2023/10/20 05:43:52;;;;;;;0.70;0.70;;;1.30;99.90;;;;;;5112152;28;20214;-71
2023/10/20 05:46:18;;;;;;;0.65;0.65;;;1.30;99.90;;;;;;5112218;28;20199;-71
2023/10/20 05:48:44;;;;;;;0.55;0.55;;;1.20;99.90;;;;;;5111720;28;20227;-71
2023/10/20 05:51:11;;;;;;;0.60;0.60;;;1.20;99.90;;;;;;5111889;28;20674;-71
2023/10/20 05:53:36;;;;;;;0.98;0.98;;;1.20;99.90;;;;;;5111499;28;20183;-71
2023/10/20 05:56:05;;;;;;;0.73;0.73;;;1.30;99.90;;;;;;5111864;28;20206;-71
2023/10/20 05:58:34;;;;;;;0.68;0.68;;;1.30;99.90;;;;;;5111430;28;20718;-71
2023/10/20 06:01:09;;;;;;;0.40;0.40;;;1.30;99.90;;;;;;5112248;28;20219;-71
2023/10/20 06:03:40;;;;;;;0.57;0.57;;;1.30;99.90;;;;;;5093167;28;20591;-71
2023/10/20 06:06:06;;;;;;;0.80;0.80;;;1.30;99.90;;;;;;5092970;28;20264;-71
2023/10/20 06:08:32;;;;;;;0.65;0.65;;;1.20;99.90;;;;;;5111526;28;20667;-71
2023/10/20 06:11:07;;;;;;;0.70;0.70;;;1.20;99.90;;;;;;5111398;28;20648;-71
2023/10/20 06:13:37;;;;;;;0.70;0.70;;;1.20;99.90;;;;;;5111337;28;20683;-71
2023/10/20 06:16:10;;;;;;;0.77;0.77;;;1.20;99.90;;;;;;5111306;28;20252;-71
2023/10/20 06:18:40;;;;;;;0.55;0.55;;;1.20;99.90;;;;;;5111351;28;20206;-71
2023/10/20 06:21:15;;;;;;;0.73;0.73;;;1.20;99.90;;;;;;5111369;28;20666;-71
2023/10/20 06:23:41;;;;;;;0.63;0.63;;;1.20;99.90;;;;;;5111416;28;20194;-71
2023/10/20 06:26:06;;;;;;;0.70;0.70;;;1.20;99.90;;;;;;5111121;28;20204;-70
2023/10/20 06:28:32;;;;;;;0.50;0.50;;;1.20;99.90;;;;;;5085495;28;20710;-71
2023/10/20 06:31:01;;;;;;;0.70;0.70;;;1.20;99.90;;;;;;5092307;28;20230;-71
2023/10/20 06:33:37;;;;;;;0.70;0.70;;;1.20;99.90;;;;;;5110856;28;20669;-70
2023/10/20 06:36:10;;;;;;;0.90;0.90;;;1.30;99.90;;;;;;5110977;28;20194;-71
2023/10/20 06:38:45;;;;;;;0.80;0.80;;;1.30;99.90;;;;;;5111313;28;20187;-71
2023/10/20 06:41:13;;;;;;;0.60;0.60;;;1.40;99.90;;;;;;5111070;28;20190;-71
2023/10/20 06:43:39;;;;;;;0.60;0.60;;;1.40;99.90;;;;;;5092677;28;20206;-71
2023/10/20 06:46:05;;;;;;;0.70;0.70;;;1.40;99.90;;;;;;5110803;28;20192;-72
2023/10/20 06:48:31;;;;;;;0.70;0.70;;;1.40;99.90;;;;;;5110558;28;20226;-73
2023/10/20 06:50:57;;;;;;;0.60;0.60;;;1.40;99.90;;;;;;5110921;28;20626;-73
2023/10/20 06:53:25;;;;;;;0.60;0.60;;;1.40;99.90;;;;;;5109633;28;20662;-73
2023/10/20 06:55:51;;;;;;;0.65;0.65;;;1.50;99.90;;;;;;5110697;28;20199;-73
2023/10/20 06:58:19;;;;;;;0.60;0.60;;;1.50;99.90;;;;;;5092187;28;20195;-72
2023/10/20 07:00:46;;;;;;;0.70;0.70;;;1.60;99.90;;;;;;5110504;28;20199;-72
2023/10/20 07:03:15;;;;;;;0.60;0.60;;;1.60;99.90;;;;;;5110543;28;20282;-72
2023/10/20 07:05:41;;;;;;;0.57;0.57;;;1.60;99.90;;;;;;5091923;28;20670;-72
2023/10/20 07:08:08;;;;;;;0.63;0.63;;;1.60;99.90;;;;;;5091912;28;20256;-72
2023/10/20 07:10:39;;;;;;;0.60;0.60;;;1.70;99.90;;;;;;5110070;28;20203;-72
2023/10/20 07:13:12;;;;;;;0.77;0.77;;;1.80;99.90;;;;;;5110175;28;20199;-72
2023/10/20 07:15:40;;;;;;;0.70;0.70;;;1.90;99.90;;;;;;5110096;28;20252;-72
2023/10/20 07:18:06;;;;;;;0.63;0.63;;;1.90;99.90;;;;;;5110166;28;20190;-73
2023/10/20 07:20:38;;;;;;;0.70;0.70;;;2.00;99.90;;;;;;5110099;28;20196;-72
2023/10/20 07:23:05;;;;;;;0.70;0.70;;;2.00;99.90;;;;;;5110205;28;20219;-71
2023/10/20 07:25:31;;;;;;;0.80;0.80;;;2.10;99.90;;;;;;5096605;28;20192;-73
2023/10/20 07:27:57;;;;;;;0.60;0.60;;;2.10;99.90;;;;;;5097535;28;20209;-73
2023/10/20 07:30:23;;;;;;;0.70;0.70;;;2.10;99.90;;;;;;5109831;28;20631;-72
2023/10/20 07:32:52;;;;;;;0.70;0.70;;;2.20;99.90;;;;;;5110183;28;20291;-72
2023/10/20 07:35:18;;;;;;;0.60;0.60;;;2.30;99.90;;;;;;5091451;28;20199;-71
2023/10/20 07:37:44;;;;;;;0.60;0.60;;;2.40;99.90;;;;;;5109957;28;20652;-71
2023/10/20 07:40:10;;;;;;;0.70;0.70;;;2.50;99.90;;;;;;5091649;28;20223;-72
2023/10/20 07:42:39;;;;;;;0.50;0.50;;;2.50;99.90;;;;;;5109709;28;20226;-72
2023/10/20 07:45:06;;;;;;;0.60;0.60;;;2.50;99.90;;;;;;5110016;28;20223;-70
2023/10/20 07:47:33;;;;;;;0.65;0.65;;;2.60;99.90;;;;;;5109845;28;20725;-70
2023/10/20 07:49:59;;;;;;;0.70;0.70;;;2.70;99.90;;;;;;5109401;28;20712;-70
2023/10/20 07:52:25;;;;;;;0.70;0.70;;;2.90;99.90;;;;;;5090803;28;20219;-70
2023/10/20 07:54:51;;;;;;;0.75;0.75;;;2.90;99.90;;;;;;5090957;28;20203;-72
2023/10/20 07:57:18;;;;;;;0.70;0.70;;;2.90;99.90;;;;;;5091089;28;20699;-72
2023/10/20 07:59:45;;;;;;;0.63;0.63;;;3.00;99.90;;;;;;5109307;28;20278;-71
2023/10/20 08:02:11;;;;;;;0.70;0.70;;;3.00;99.90;;;;;;5109449;28;20241;-72
2023/10/20 08:04:36;;;;;;;0.60;0.60;;;3.10;99.90;;;;;;5108372;28;20669;-71
2023/10/20 08:07:03;;;;;;;0.60;0.60;;;3.10;99.90;;;;;;5109277;28;20191;-71
2023/10/20 08:09:29;;;;;;;0.60;0.60;;;3.20;99.90;;;;;;5108891;28;20257;-71
2023/10/20 08:11:56;;;;;;;0.60;0.60;;;3.20;99.90;;;;;;5090884;28;20605;-72
2023/10/20 08:14:28;;;;;;;0.60;0.60;;;3.20;99.90;;;;;;5090918;28;20208;-71
2023/10/20 08:16:53;;;;;;;0.60;0.60;;;3.20;99.90;;;;;;5109191;28;20188;-72
2023/10/20 08:19:20;;;;;;;0.55;0.55;;;3.20;99.90;;;;;;5109064;28;20191;-72
2023/10/20 08:21:46;;;;;;;0.60;0.60;;;3.10;99.90;;;;;;5090647;28;20195;-72
2023/10/20 08:24:12;;;;;;;0.65;0.65;;;3.10;99.90;;;;;;5109619;28;20286;-72
2023/10/20 08:26:39;;;;;;;0.60;0.60;;;3.10;99.90;;;;;;5108928;28;20195;-72
2023/10/20 08:29:11;;;;;;;0.50;0.50;;;3.10;99.90;;;;;;5109168;28;20195;-72
2023/10/20 08:31:38;;;;;;;0.55;0.55;;;3.20;99.90;;;;;;5108931;28;20294;-72
2023/10/20 08:34:04;;;;;;;0.60;0.60;;;3.40;99.90;;;;;;5109176;28;20197;-71
2023/10/20 08:36:33;;;;;;;0.60;0.60;;;3.60;99.90;;;;;;5108788;28;20215;-72
2023/10/20 08:39:06;;;;;;;0.75;0.75;;;3.80;99.90;;;;;;5109148;28;20191;-70
2023/10/20 08:41:33;;;;;;;0.45;0.45;;;3.90;99.90;;;;;;5108980;28;20303;-72
2023/10/20 08:44:01;;;;;;;1.33;1.23;;;4.00;99.90;;;;;;5108827;28;20184;-72
2023/10/20 08:46:27;;;;;;;2.00;1.27;;;4.00;99.90;;;;;;5108470;28;20286;-70
2023/10/20 08:48:55;;;;;;;0.88;0.88;;;4.10;99.90;;;;;;5108759;28;20231;-72
2023/10/20 08:51:22;;;;;;;0.60;0.60;;;4.00;99.90;;;;;;5108761;28;20212;-72
2023/10/20 08:53:48;;;;;;;0.60;0.60;;;3.90;99.90;;;;;;5108405;28;20284;-72
2023/10/20 08:56:14;;;;;;;0.50;0.50;;;4.00;99.90;;;;;;5108826;28;20617;-71
2023/10/20 08:58:40;;;;;;;0.50;0.50;;;4.10;99.90;;;;;;5108496;28;20192;-71
2023/10/20 09:01:06;;;;;;;0.55;0.55;;;4.10;99.90;;;;;;5108846;28;20199;-71
2023/10/20 09:03:45;;;;;;;0.43;0.43;;;4.30;99.90;;;;;;5108615;28;20188;-71
2023/10/20 09:06:14;;;;;;;0.52;0.52;;;4.30;99.90;;;;;;5108904;28;20616;-72
2023/10/20 09:08:49;;;;;;;1.15;1.08;;;4.50;99.90;;;;;;5090136;28;20687;-71
2023/10/20 09:11:15;;;;;;;0.70;0.70;;;4.70;99.90;;;;;;5108640;28;20222;-71
2023/10/20 09:13:43;;;;;;;0.80;0.80;;;4.70;99.90;;;;;;5090397;28;20559;-71
2023/10/20 09:16:13;;;;;;;0.65;0.65;;;4.50;99.90;;;;;;5109454;28;20199;-71
2023/10/20 09:18:47;;;;;;;0.60;0.60;;;4.30;99.90;;;;;;5093958;28;20312;-71
2023/10/20 09:21:24;;;;;;;0.57;0.57;;;4.30;99.90;;;;;;5106436;28;20303;-71
2023/10/20 09:23:54;;;;;;;25.63;1.38;;;4.30;99.90;;;;;;5112338;28;20191;-71
2023/10/20 09:26:20;;;;;;;0.60;0.60;;;4.20;99.90;;;;;;5112300;28;20195;-71
2023/10/20 09:28:50;;;;;;;0.50;0.50;;;4.30;99.90;;;;;;5112484;28;20191;-71
2023/10/20 09:31:17;;;;;;;0.60;0.60;;;4.20;99.90;;;;;;5093950;28;20244;-71
2023/10/20 09:37:31;;;;;;;0.68;0.68;;;4.20;99.90;;;;;;4967311;28;20210;-71
2023/10/20 09:40:08;;;;;;;0.70;0.70;;;4.00;99.90;;;;;;4990026;28;20203;-72
2023/10/20 09:43:05;;;;;;;0.60;0.60;;;4.10;99.90;;;;;;5091228;28;20545;-72
2023/10/20 09:45:33;;;;;;;0.50;0.50;;;4.20;99.90;;;;;;5063962;28;20208;-71
2023/10/20 09:48:04;;;;;;;0.60;0.60;;;4.30;99.90;;;;;;5091490;28;20590;-73
2023/10/20 09:50:31;;;;;;;0.60;0.60;;;4.80;99.90;;;;;;5101716;28;20213;-72
2023/10/20 09:52:59;;;;;;;0.65;0.65;;;5.30;99.90;;;;;;5112101;28;20576;-72
2023/10/20 09:55:26;;;;;;;0.70;0.70;;;5.50;99.90;;;;;;5091753;28;20191;-71
2023/10/20 09:57:52;;;;;;;0.70;0.70;;;5.80;99.90;;;;;;5073323;28;20612;-72
2023/10/20 10:00:41;;;;;;;0.40;0.40;;;6.00;99.90;;;;;;5091473;28;20199;-71
2023/10/20 10:03:08;;;;;;;0.50;0.50;;;5.80;99.90;;;;;;5092203;28;20311;-72
2023/10/20 10:05:36;;;;;;;0.65;0.65;;;5.70;99.90;;;;;;5091250;28;20712;-70
2023/10/20 10:08:05;;;;;;;0.40;0.40;;;5.60;99.90;;;;;;5091337;28;20195;-70
2023/10/20 10:10:32;;;;;;;0.73;0.73;;;5.50;99.90;;;;;;5091434;28;20605;-70
2023/10/20 10:13:04;;;;;;;0.55;0.55;;;5.40;99.90;;;;;;5091871;28;20208;-70
2023/10/20 10:15:41;;;;;;;0.50;0.50;;;5.30;99.90;;;;;;5111376;28;20556;-69
2023/10/20 10:18:12;;;;;;;0.50;0.50;;;5.40;99.90;;;;;;5111333;28;20557;-71
2023/10/20 10:20:50;;;;;;;0.50;0.50;;;5.30;99.90;;;;;;5111217;28;20259;-70
2023/10/20 10:23:15;;;;;;;0.60;0.60;;;5.30;99.90;;;;;;5111265;28;20632;-68
2023/10/20 10:25:43;;;;;;;0.50;0.50;;;5.20;99.90;;;;;;5111075;28;20191;-69
2023/10/20 10:28:16;;;;;;;0.50;0.50;;;5.00;99.90;;;;;;5110672;28;20237;-69
2023/10/20 10:30:45;;;;;;;0.65;0.65;;;4.90;99.90;;;;;;5092436;28;20219;-69
2023/10/20 10:33:12;;;;;;;0.50;0.50;;;4.80;99.90;;;;;;5111170;28;20806;-68
2023/10/20 10:35:39;;;;;;;0.50;0.50;;;4.80;99.90;;;;;;5110916;28;20442;-69
2023/10/20 10:38:17;;;;;;;0.50;0.50;;;4.80;99.90;;;;;;5110818;28;20200;-70
2023/10/20 10:40:45;;;;;;;0.70;0.70;;;4.80;99.90;;;;;;5090675;28;20222;-69
2023/10/20 10:43:19;;;;;;;0.70;0.70;;;4.80;99.90;;;;;;5090587;28;20192;-68
2023/10/20 10:45:50;;;;;;;0.60;0.60;;;4.70;99.90;;;;;;5092411;28;20203;-68
2023/10/20 10:48:16;;;;;;;0.40;0.40;;;4.70;99.90;;;;;;5110674;28;20241;-70
2023/10/20 10:50:45;;;;;;;0.60;0.60;;;4.70;99.90;;;;;;5110407;28;20214;-69
2023/10/20 10:53:12;;;;;;;0.70;0.70;;;4.80;99.90;;;;;;5108916;28;20199;-69
2023/10/20 10:55:38;;;;;;;0.60;0.60;;;4.80;99.90;;;;;;5090058;28;20314;-69
2023/10/20 10:58:14;;;;;;;0.50;0.50;;;4.80;99.90;;;;;;5090179;28;20200;-69
2023/10/20 11:00:42;;;;;;;0.50;0.50;;;4.80;99.90;;;;;;5071782;28;20200;-69
2023/10/20 11:03:08;;;;;;;0.47;0.47;;;5.10;99.90;;;;;;5090151;28;20707;-69
2023/10/20 11:05:35;;;;;;;0.60;0.60;;;5.30;99.90;;;;;;5089741;28;20658;-69
2023/10/20 11:08:04;;;;;;;0.60;0.60;;;5.40;99.90;;;;;;5090101;28;20694;-68
2023/10/20 11:10:34;;;;;;;0.60;0.60;;;5.50;99.90;;;;;;5102962;28;20199;-70
2023/10/20 11:13:05;;;;;;;0.60;0.60;;;5.40;99.90;;;;;;5110228;28;20231;-69
2023/10/20 11:15:35;;;;;;;0.60;0.60;;;5.40;99.90;;;;;;5110000;28;20191;-69
2023/10/20 11:18:03;;;;;;;0.60;0.60;;;5.90;99.90;;;;;;5110245;28;20887;-68
2023/10/20 11:20:33;;;;;;;0.60;0.60;;;6.10;99.90;;;;;;5110208;28;20183;-69
2023/10/20 11:22:58;;;;;;;0.70;0.70;;;6.10;99.90;;;;;;5109924;28;20188;-69
2023/10/20 11:25:27;;;;;;;0.60;0.60;;;6.20;99.90;;;;;;5110159;28;20257;-68
2023/10/20 11:27:56;;;;;;;0.60;0.60;;;6.20;99.90;;;;;;5108440;27;20690;-69
2023/10/20 11:30:34;;;;;;;0.60;0.60;;;6.10;99.90;;;;;;5089381;28;20291;-68
2023/10/20 11:33:01;;;;;;;0.65;0.65;;;5.90;99.90;;;;;;5089755;28;20553;-70
2023/10/20 11:35:27;;;;;;;0.80;0.80;;;5.90;99.90;;;;;;5098969;28;20195;-68
2023/10/20 11:37:58;;;;;;;0.60;0.60;;;5.80;99.90;;;;;;5109923;28;20236;-69
2023/10/20 11:40:27;;;;;;;0.80;0.80;;;5.60;99.90;;;;;;5109922;28;20215;-70
2023/10/20 11:42:54;;;;;;;0.52;0.52;;;5.70;99.90;;;;;;5109842;28;20226;-70
2023/10/20 11:45:20;;;;;;;0.70;0.70;;;5.70;99.90;;;;;;5109713;28;20188;-69
2023/10/20 11:47:49;;;;;;;0.60;0.60;;;5.50;99.90;;;;;;5109438;28;20231;-69
2023/10/20 11:50:15;;;;;;;0.50;0.50;;;5.30;99.90;;;;;;5091257;28;20203;-68
2023/10/20 11:52:42;;;;;;;0.60;0.60;;;5.30;99.90;;;;;;5109616;28;20203;-69
2023/10/20 11:55:09;;;;;;;0.57;0.57;;;5.30;99.90;;;;;;5091276;28;20196;-69
2023/10/20 11:57:35;;;;;;;0.60;0.60;;;5.10;99.90;;;;;;5089126;28;20277;-69
2023/10/20 12:00:07;;;;;;;0.60;0.60;;;5.00;99.90;;;;;;5089527;28;20192;-68
2023/10/20 12:02:33;;;;;;;0.60;0.60;;;4.90;99.90;;;;;;5089091;28;20245;-68
2023/10/20 12:05:00;;;;;;;0.57;0.57;;;4.90;99.90;;;;;;5089224;28;20238;-69
2023/10/20 12:07:26;;;;;;;0.50;0.50;;;5.00;99.90;;;;;;5088920;28;20191;-69
2023/10/20 12:09:52;;;;;;;0.75;0.75;;;5.00;99.90;;;;;;5102637;28;20661;-68
2023/10/20 12:12:19;;;;;;;0.70;0.70;;;5.00;99.90;;;;;;5109068;28;20677;-68
2023/10/20 12:14:45;;;;;;;3.15;1.60;;;4.90;99.90;;;;;;5109688;28;20533;-69
2023/10/20 12:17:14;;;;;;;0.55;0.55;;;4.90;99.90;;;;;;5109275;28;20280;-70
2023/10/20 12:19:40;;;;;;;0.75;0.75;;;4.90;99.90;;;;;;5109409;28;20187;-69
2023/10/20 12:22:06;;;;;;;0.68;0.68;;;4.80;99.90;;;;;;5109351;28;20252;-68
2023/10/20 12:24:32;;;;;;;0.73;0.73;;;4.80;99.90;;;;;;5109307;28;20722;-68
2023/10/20 12:26:59;;;;;;;0.60;0.60;;;4.80;99.90;;;;;;5109502;28;20192;-69
2023/10/20 12:29:25;;;;;;;0.50;0.50;;;4.80;99.90;;;;;;5090501;28;20647;-68
2023/10/20 12:31:51;;;;;;;0.70;0.70;;;4.80;99.90;;;;;;5098150;28;20533;-71
2023/10/20 12:34:17;;;;;;;0.68;0.68;;;4.70;99.90;;;;;;5088695;28;20196;-70
2023/10/20 12:36:42;;;;;;;0.60;0.60;;;4.80;99.90;;;;;;5089036;28;20250;-72
2023/10/20 12:39:09;;;;;;;0.60;0.60;;;4.80;99.90;;;;;;5098186;28;20199;-73
2023/10/20 12:41:38;;;;;;;0.60;0.60;;;4.70;99.90;;;;;;5108783;28;20722;-72
2023/10/20 12:44:04;;;;;;;0.60;0.60;;;4.80;99.90;;;;;;5109177;28;20195;-73
2023/10/20 12:46:29;;;;;;;0.70;0.70;;;4.80;99.90;;;;;;5108912;28;20662;-72
2023/10/20 12:48:55;;;;;;;0.60;0.60;;;4.70;99.90;;;;;;5108789;28;20219;-72
2023/10/20 12:51:21;;;;;;;0.75;0.75;;;5.00;99.90;;;;;;5110009;28;20209;-72
2023/10/20 12:53:49;;;;;;;0.50;0.50;;;5.40;99.90;;;;;;5105908;28;20735;-72
2023/10/20 12:56:16;;;;;;;0.60;0.60;;;5.30;99.90;;;;;;5074407;28;20199;-72
2023/10/20 12:58:42;;;;;;;0.50;0.50;;;5.00;99.90;;;;;;5093078;28;20539;-72
2023/10/20 13:01:07;;;;;;;0.60;0.60;;;4.90;99.90;;;;;;5092546;28;20204;-73
2023/10/20 13:03:34;;;;;;;0.60;0.60;;;4.80;99.90;;;;;;5109780;28;20230;-71
2023/10/20 13:05:59;;;;;;;0.50;0.50;;;4.70;99.90;;;;;;5112870;28;20195;-72
2023/10/20 13:08:25;;;;;;;0.47;0.47;;;4.70;99.90;;;;;;5112630;28;20226;-72
2023/10/20 13:10:51;;;;;;;0.60;0.60;;;4.80;99.90;;;;;;5112406;28;20255;-72
2023/10/20 13:13:17;;;;;;;0.60;0.60;;;4.80;99.90;;;;;;5112604;28;20544;-72
2023/10/20 13:15:43;;;;;;;0.70;0.70;;;4.80;99.90;;;;;;5112351;28;20218;-72
2023/10/20 13:18:12;;;;;;;0.57;0.57;;;4.80;99.90;;;;;;5112540;28;20302;-72
2023/10/20 13:20:39;;;;;;;0.60;0.60;;;4.60;99.90;;;;;;5112485;28;20188;-72
2023/10/20 13:23:08;;;;;;;0.60;0.60;;;4.50;99.90;;;;;;5112356;28;20282;-73
2023/10/20 13:25:36;;;;;;;0.60;0.60;;;4.40;99.90;;;;;;5112294;28;20555;-72